Nevada County Airport

KGOO · Californie, États-Unis

METAR anciennes KGOO · Nevada County Airport

Tu vois ci-dessous les METAR des derniers jours. Sélectionne une année pour parcourir les METAR plus anciens, à partir de l'année 2007.

14 juin 2024

Temps Code Temps Temp. Vue Base cloud Vent METAR/SPECI
23:55
V
18 °C 10 mi - 120° 120° 7 kt METAR KGOO 150655Z AUTO 12007KT 10SM CLR 18/03 A3003 RMK A01
23:15
V
18 °C 10 mi - 130° 130° 5 kt METAR KGOO 150615Z AUTO 13005KT 10SM CLR 18/04 A3004 RMK A01
22:55
V
18 °C 10 mi - Var Var 3 kt METAR KGOO 150555Z AUTO VRB03KT 10SM CLR 18/04 A3004 RMK A01
22:35
V
19 °C 10 mi - Var Var 4 - 11 kt METAR KGOO 150535Z AUTO VRB04G11KT 10SM CLR 19/04 A3004 RMK A01
22:15
V
19 °C 10 mi - 130° 130° 5 kt METAR KGOO 150515Z AUTO 13005KT 10SM CLR 19/05 A3005 RMK A01
21:55
V
19 °C 10 mi - 130° 130° 4 kt METAR KGOO 150455Z AUTO 13004KT 10SM CLR 19/04 A3004 RMK A01
21:35
V
20 °C 10 mi - Var Var 4 kt METAR KGOO 150435Z AUTO VRB04KT 10SM CLR 20/04 A3004 RMK A01
21:15
V
20 °C 10 mi - Var Var 3 kt METAR KGOO 150415Z AUTO VRB03KT 10SM CLR 20/05 A3004 RMK A01
20:55
V
20 °C 10 mi - 360° 360° 0 kt METAR KGOO 150355Z AUTO 00000KT 10SM CLR 20/05 A3004 RMK A01
20:35
V
21 °C 10 mi - Var Var 4 kt METAR KGOO 150335Z AUTO VRB04KT 10SM CLR 21/06 A3004 RMK A01
20:15
V
21 °C 10 mi - 360° 360° 0 kt METAR KGOO 150315Z AUTO 00000KT 10SM CLR 21/06 A3004 RMK A01
19:55
V
22 °C 10 mi - Var Var 3 kt METAR KGOO 150255Z AUTO VRB03KT 10SM CLR 22/06 A3004 RMK A01
19:35
V
22 °C 10 mi - Var Var 4 kt METAR KGOO 150235Z AUTO VRB04KT 10SM CLR 22/07 A3004 RMK A01
19:15
V
23 °C 10 mi - 360° 360° 0 kt METAR KGOO 150215Z AUTO 00000KT 10SM CLR 23/07 A3004 RMK A01
18:55
V
23 °C 10 mi - 360° 360° 0 kt METAR KGOO 150155Z AUTO 00000KT 10SM CLR 23/07 A3004 RMK A01
18:35
V
23 °C 10 mi - Var Var 3 kt METAR KGOO 150135Z AUTO VRB03KT 10SM CLR 23/07 A3003 RMK A01
18:15
V
25 °C 10 mi - Var Var 4 kt METAR KGOO 150115Z AUTO VRB04KT 10SM CLR 25/07 A3003 RMK A01
17:55
V
25 °C 10 mi - Var Var 5 - 10 kt METAR KGOO 150055Z AUTO VRB05G10KT 10SM CLR 25/07 A3003 RMK A01
17:35
V
26 °C 10 mi - 360° 360° 0 kt METAR KGOO 150035Z AUTO 00000G10KT 10SM CLR 26/08 A3004 RMK A01
17:15
V
26 °C 10 mi - Var Var 5 kt METAR KGOO 150015Z AUTO VRB05KT 10SM CLR 26/08 A3004 RMK A01
16:55
V
26 °C 10 mi - Var Var 6 - 12 kt METAR KGOO 142355Z AUTO VRB06G12KT 10SM CLR 26/07 A3004 RMK A01
16:35
V
26 °C 10 mi - Var Var 5 kt METAR KGOO 142335Z AUTO VRB05KT 10SM CLR 26/09 A3004 RMK A01
16:15
V
26 °C 10 mi - 360° 360° 0 kt METAR KGOO 142315Z AUTO 00000G12KT 10SM CLR 26/10 A3004 RMK A01
15:55
V
26 °C 10 mi - Var Var 6 - 12 kt METAR KGOO 142255Z AUTO VRB06G12KT 10SM CLR 26/09 A3005 RMK A01
15:35
V
26 °C 10 mi - 230° 230° 7 kt METAR KGOO 142235Z AUTO 23007KT 200V270 10SM CLR 26/07 A3005 RMK A01
15:15
V
27 °C 10 mi - Var Var 6 kt METAR KGOO 142215Z AUTO VRB06KT 10SM CLR 27/07 A3006 RMK A01
14:55
V
27 °C 10 mi - Var Var 6 - 12 kt METAR KGOO 142155Z AUTO VRB06G12KT 10SM CLR 27/06 A3006 RMK A01
14:35
V
27 °C 10 mi - Var Var 5 - 11 kt METAR KGOO 142135Z AUTO VRB05G11KT 10SM CLR 27/07 A3006 RMK A01
14:15
V
26 °C 10 mi - 220° 220° 8 - 13 kt METAR KGOO 142115Z AUTO 22008G13KT 10SM CLR 26/07 A3006 RMK A01
13:55
V
27 °C 10 mi - Var Var 5 - 13 kt METAR KGOO 142055Z AUTO VRB05G13KT 10SM CLR 27/06 A3007 RMK A01
13:35
V
26 °C 10 mi - Var Var 6 - 14 kt METAR KGOO 142035Z AUTO VRB06G14KT 120V220 10SM CLR 26/03 A3007 RMK A01
13:15
V
26 °C 10 mi - Var Var 5 - 12 kt METAR KGOO 142015Z AUTO VRB05G12KT 10SM CLR 26/02 A3007 RMK A01
12:55
V
26 °C 10 mi - Var Var 6 - 12 kt METAR KGOO 141955Z AUTO VRB06G12KT 10SM CLR 26/06 A3007 RMK A01
12:35
V
26 °C 10 mi - Var Var 4 kt METAR KGOO 141935Z AUTO VRB04KT 10SM CLR 26/07 A3007 RMK A01
12:15
V
26 °C 10 mi - Var Var 4 - 13 kt METAR KGOO 141915Z AUTO VRB04G13KT 10SM CLR 26/07 A3007 RMK A01
11:55
V
26 °C 10 mi - Var Var 4 - 10 kt METAR KGOO 141855Z AUTO VRB04G10KT 10SM CLR 26/08 A3007 RMK A01
11:35
V
25 °C 10 mi - Var Var 5 - 10 kt METAR KGOO 141835Z AUTO VRB05G10KT 10SM CLR 25/09 A3007 RMK A01
11:15
V
25 °C 10 mi - Var Var 5 kt METAR KGOO 141815Z AUTO VRB05KT 10SM CLR 25/10 A3007 RMK A01
10:55
V
25 °C 10 mi - Var Var 4 kt METAR KGOO 141755Z AUTO VRB04KT 10SM CLR 25/09 A3006 RMK A01
10:35
V
25 °C 10 mi - Var Var 4 - 10 kt METAR KGOO 141735Z AUTO VRB04G10KT 10SM CLR 25/10 A3006 RMK A01
10:15
V
24 °C 10 mi - 160° 160° 9 kt METAR KGOO 141715Z AUTO 16009KT 140V200 10SM CLR 24/09 A3006 RMK A01
09:55
V
23 °C 10 mi - 160° 160° 7 kt METAR KGOO 141655Z AUTO 16007KT 140V210 10SM CLR 23/09 A3006 RMK A01
09:35
V
23 °C 10 mi - Var Var 6 kt METAR KGOO 141635Z AUTO VRB06KT 10SM CLR 23/09 A3006 RMK A01
09:15
V
23 °C 10 mi - Var Var 6 - 13 kt METAR KGOO 141615Z AUTO VRB06G13KT 10SM CLR 23/09 A3006 RMK A01
08:55
V
22 °C 10 mi - Var Var 4 - 10 kt METAR KGOO 141555Z AUTO VRB04G10KT 10SM CLR 22/09 A3006 RMK A01
08:35
V
22 °C 10 mi - Var Var 5 kt METAR KGOO 141535Z AUTO VRB05KT 10SM CLR 22/09 A3005 RMK A01
08:15
V
21 °C 10 mi - 130° 130° 4 kt METAR KGOO 141515Z AUTO 13004KT 10SM CLR 21/09 A3005 RMK A01
07:55
V
21 °C 10 mi - 130° 130° 5 kt METAR KGOO 141455Z AUTO 13005KT 10SM CLR 21/08 A3005 RMK A01
07:35
V
20 °C 10 mi - 140° 140° 4 kt METAR KGOO 141435Z AUTO 14004KT 10SM CLR 20/08 A3005 RMK A01
07:15
V
20 °C 10 mi - 360° 360° 0 kt METAR KGOO 141415Z AUTO 00000KT 10SM CLR 20/08 A3005 RMK A01
06:55
V
20 °C 10 mi - 360° 360° 0 kt METAR KGOO 141355Z AUTO 00000KT 10SM CLR 20/07 A3005 RMK A01
06:35
V
20 °C 10 mi - 130° 130° 3 kt METAR KGOO 141335Z AUTO 13003KT 10SM CLR 20/07 A3004 RMK A01
06:15
V
20 °C 10 mi - 360° 360° 0 kt METAR KGOO 141315Z AUTO 00000KT 10SM CLR 20/06 A3003 RMK A01
05:55
V
19 °C 10 mi - 130° 130° 3 kt METAR KGOO 141255Z AUTO 13003KT 10SM CLR 19/08 A3003 RMK A01
05:35
V
20 °C 10 mi - 130° 130° 4 kt METAR KGOO 141235Z AUTO 13004KT 10SM CLR 20/07 A3003 RMK A01
05:15
V
21 °C 10 mi - 120° 120° 3 kt METAR KGOO 141215Z AUTO 12003KT 10SM CLR 21/07 A3002 RMK A01
04:55
V
21 °C 10 mi - Var Var 4 kt METAR KGOO 141155Z AUTO VRB04KT 10SM CLR 21/07 A3002 RMK A01
04:35
V
21 °C 10 mi - 110° 110° 5 kt METAR KGOO 141135Z AUTO 11005KT 10SM CLR 21/07 A3001 RMK A01
04:15
V
20 °C 10 mi - Var Var 5 kt METAR KGOO 141115Z AUTO VRB05KT 10SM CLR 20/09 A3001 RMK A01
03:55
V
21 °C 10 mi - 120° 120° 4 kt METAR KGOO 141055Z AUTO 12004KT 10SM CLR 21/08 A3001 RMK A01
03:35
V
21 °C 10 mi - 110° 110° 6 kt METAR KGOO 141035Z AUTO 11006KT 10SM CLR 21/08 A3002 RMK A01
03:15
V
22 °C 10 mi - 120° 120° 5 kt METAR KGOO 141015Z AUTO 12005KT 10SM CLR 22/09 A3002 RMK A01
02:55
V
22 °C 10 mi - 110° 110° 5 kt METAR KGOO 140955Z AUTO 11005KT 10SM CLR 22/09 A3002 RMK A01
02:35
V
22 °C 10 mi - Var Var 6 kt METAR KGOO 140935Z AUTO VRB06KT 10SM CLR 22/09 A3002 RMK A01
02:15
V
22 °C 10 mi - 120° 120° 7 kt METAR KGOO 140915Z AUTO 12007KT 10SM CLR 22/09 A3002 RMK A01
01:55
V
22 °C 10 mi - 110° 110° 6 kt METAR KGOO 140855Z AUTO 11006KT 10SM CLR 22/10 A3003 RMK A01
01:35
V
22 °C 10 mi - 110° 110° 6 kt METAR KGOO 140835Z AUTO 11006KT 10SM CLR 22/10 A3003 RMK A01
01:15
V
22 °C 10 mi - 120° 120° 7 kt METAR KGOO 140815Z AUTO 12007KT 10SM CLR 22/10 A3004 RMK A01
00:55
V
22 °C 10 mi - 120° 120° 6 kt METAR KGOO 140755Z AUTO 12006KT 10SM CLR 22/10 A3004 RMK A01
00:35
V
22 °C 10 mi - 110° 110° 6 kt METAR KGOO 140735Z AUTO 11006KT 10SM CLR 22/11 A3004 RMK A01
00:15
V
22 °C 10 mi - 110° 110° 5 kt METAR KGOO 140715Z AUTO 11005KT 10SM CLR 22/11 A3005 RMK A01

13 juin 2024

Temps Code Temps Temp. Vue Base cloud Vent METAR/SPECI
23:55
V
22 °C 10 mi - 120° 120° 6 kt METAR KGOO 140655Z AUTO 12006KT 10SM CLR 22/11 A3005 RMK A01
23:35
V
21 °C 10 mi - 120° 120° 5 kt METAR KGOO 140635Z AUTO 12005KT 10SM CLR 21/11 A3005 RMK A01
23:15
V
21 °C 10 mi - 120° 120° 4 kt METAR KGOO 140615Z AUTO 12004KT 10SM CLR 21/11 A3005 RMK A01
22:55
V
21 °C 10 mi - 120° 120° 4 kt METAR KGOO 140555Z AUTO 12004KT 10SM CLR 21/11 A3005 RMK A01
22:35
V
21 °C 10 mi - 360° 360° 0 kt METAR KGOO 140535Z AUTO 00000KT 10SM CLR 21/11 A3005 RMK A01
22:15
V
21 °C 10 mi - 130° 130° 4 kt METAR KGOO 140515Z AUTO 13004KT 10SM CLR 21/11 A3004 RMK A01
21:55
V
21 °C 10 mi - 130° 130° 4 kt METAR KGOO 140455Z AUTO 13004KT 10SM CLR 21/11 A3004 RMK A01
21:35
V
22 °C 10 mi - 130° 130° 4 kt METAR KGOO 140435Z AUTO 13004KT 10SM CLR 22/11 A3004 RMK A01
21:15
V
22 °C 10 mi - 130° 130° 3 kt METAR KGOO 140415Z AUTO 13003KT 10SM CLR 22/11 A3003 RMK A01
20:55
V
22 °C 10 mi - 140° 140° 3 kt METAR KGOO 140355Z AUTO 14003KT 10SM CLR 22/11 A3002 RMK A01
20:35
V
23 °C 10 mi - Var Var 4 kt METAR KGOO 140335Z AUTO VRB04KT 10SM CLR 23/11 A3002 RMK A01
20:15
V
23 °C 10 mi - 360° 360° 0 kt METAR KGOO 140315Z AUTO 00000KT 10SM CLR 23/11 A3003 RMK A01
19:55
V
24 °C 10 mi - 360° 360° 0 kt METAR KGOO 140255Z AUTO 00000KT 10SM CLR 24/11 A3003 RMK A01
19:35
V
24 °C 10 mi - 360° 360° 0 kt METAR KGOO 140235Z AUTO 00000KT 10SM CLR 24/10 A3002 RMK A01
19:15
V
25 °C 10 mi - 360° 360° 0 kt METAR KGOO 140215Z AUTO 00000KT 10SM CLR 25/10 A3002 RMK A01
18:55
V
26 °C 10 mi - 360° 360° 0 kt METAR KGOO 140155Z AUTO 00000KT 10SM CLR 26/09 A3001 RMK A01
18:35
V
26 °C 10 mi - 360° 360° 0 kt METAR KGOO 140135Z AUTO 00000KT 10SM CLR 26/09 A3001 RMK A01
18:15
V
26 °C 10 mi - Var Var 3 kt METAR KGOO 140115Z AUTO VRB03KT 10SM CLR 26/08 A3000 RMK A01
17:55
V
27 °C 10 mi - 360° 360° 0 kt METAR KGOO 140055Z AUTO 00000KT 10SM CLR 27/08 A3000 RMK A01
17:35
V
27 °C 10 mi - Var Var 4 kt METAR KGOO 140035Z AUTO VRB04KT 10SM CLR 27/08 A3000 RMK A01
17:15
V
28 °C 10 mi - Var Var 4 kt METAR KGOO 140015Z AUTO VRB04KT 10SM CLR 28/07 A3000 RMK A01
16:55
V
28 °C 10 mi - 360° 360° 0 kt METAR KGOO 132355Z AUTO 00000KT 10SM CLR 28/07 A3000 RMK A01
16:35
V
28 °C 10 mi - 360° 360° 0 kt METAR KGOO 132335Z AUTO 00000KT 10SM CLR 28/06 A3000 RMK A01
16:15
V
28 °C 10 mi - 150° 150° 7 kt METAR KGOO 132315Z AUTO 15007KT 10SM CLR 28/05 A3000 RMK A01
15:55
V
28 °C 10 mi - 360° 360° 0 kt METAR KGOO 132255Z AUTO 00000KT 10SM CLR 28/07 A3001 RMK A01
15:35
V
28 °C 10 mi - Var Var 3 kt METAR KGOO 132235Z AUTO VRB03KT 10SM CLR 28/08 A3001 RMK A01
15:15
V
28 °C 10 mi - Var Var 4 kt METAR KGOO 132215Z AUTO VRB04KT 10SM CLR 28/08 A3001 RMK A01
14:55
V
28 °C 10 mi - 240° 240° 4 kt METAR KGOO 132155Z AUTO 24004KT 10SM CLR 28/07 A3001 RMK A01
14:35
V
28 °C 10 mi - Var Var 5 kt METAR KGOO 132135Z AUTO VRB05KT 10SM CLR 28/08 A3001 RMK A01
14:15
V
28 °C 10 mi - Var Var 4 kt METAR KGOO 132115Z AUTO VRB04KT 10SM CLR 28/08 A3001 RMK A01
13:55
V
27 °C 10 mi - Var Var 4 kt METAR KGOO 132055Z AUTO VRB04KT 10SM CLR 27/10 A3001 RMK A01
13:35
V
28 °C 10 mi - 360° 360° 0 kt METAR KGOO 132035Z AUTO 00000KT 10SM CLR 28/10 A3001 RMK A01
13:15
V
27 °C 10 mi - 360° 360° 0 kt METAR KGOO 132015Z AUTO 00000G10KT 10SM CLR 27/11 A3001 RMK A01
12:55
V
27 °C 10 mi - Var Var 6 kt METAR KGOO 131955Z AUTO VRB06KT 10SM CLR 27/12 A3001 RMK A01
12:35
V
27 °C 10 mi - Var Var 5 kt METAR KGOO 131935Z AUTO VRB05KT 10SM CLR 27/13 A3001 RMK A01
12:15
V
27 °C 10 mi - 230° 230° 6 kt METAR KGOO 131915Z AUTO 23006KT 10SM CLR 27/13 A3001 RMK A01
11:55
V
27 °C 10 mi - Var Var 3 kt METAR KGOO 131855Z AUTO VRB03KT 10SM CLR 27/12 A3000 RMK A01
11:35
V
28 °C 10 mi - Var Var 4 kt METAR KGOO 131835Z AUTO VRB04KT 10SM CLR 28/11 A3000 RMK A01
11:15
V
27 °C 10 mi - Var Var 5 kt METAR KGOO 131815Z AUTO VRB05KT 10SM CLR 27/12 A3000 RMK A01
10:55
V
27 °C 10 mi - Var Var 4 kt METAR KGOO 131755Z AUTO VRB04KT 10SM CLR 27/14 A3000 RMK A01
10:35
V
27 °C 10 mi - 360° 360° 0 kt METAR KGOO 131735Z AUTO 00000KT 10SM CLR 27/14 A2999 RMK A01
09:55
V
26 °C 10 mi - Var Var 5 kt METAR KGOO 131655Z AUTO VRB05KT 10SM CLR 26/13 A2999 RMK A01
08:15
V
23 °C 10 mi - 160° 160° 4 kt METAR KGOO 131515Z AUTO 16004KT 10SM CLR 23/14 A2997 RMK A01
07:55
V
25 °C 10 mi - 360° 360° 0 kt METAR KGOO 131455Z AUTO 00000KT 10SM CLR 25/15 A2996 RMK A01
07:35
V
24 °C 10 mi - 360° 360° 0 kt METAR KGOO 131435Z AUTO 00000KT 10SM CLR 24/14 A2996 RMK A01
07:15
V
24 °C 10 mi - 360° 360° 0 kt METAR KGOO 131415Z AUTO 00000KT 10SM CLR 24/13 A2995 RMK A01
06:55
V
24 °C 10 mi - 360° 360° 0 kt METAR KGOO 131355Z AUTO 00000KT 10SM CLR 24/13 A2995 RMK A01
06:35
V
23 °C 10 mi - 360° 360° 0 kt METAR KGOO 131335Z AUTO 00000KT 10SM CLR 23/13 A2995 RMK A01
06:15
V
23 °C 10 mi - 360° 360° 0 kt METAR KGOO 131315Z AUTO 00000KT 10SM CLR 23/13 A2994 RMK A01
05:55
V
23 °C 10 mi - 360° 360° 0 kt METAR KGOO 131255Z AUTO 00000KT 10SM CLR 23/13 A2994 RMK A01
05:35
V
22 °C 10 mi - 090° 090° 3 kt METAR KGOO 131235Z AUTO 09003KT 10SM CLR 22/13 A2993 RMK A01
05:15
V
21 °C 10 mi - 070° 070° 3 kt METAR KGOO 131215Z AUTO 07003KT 10SM CLR 21/13 A2993 RMK A01
04:55
V
22 °C 10 mi - 110° 110° 4 kt METAR KGOO 131155Z AUTO 11004KT 10SM CLR 22/13 A2993 RMK A01
04:35
V
22 °C 10 mi - 110° 110° 4 kt METAR KGOO 131135Z AUTO 11004KT 10SM CLR 22/13 A2992 RMK A01
04:15
V
23 °C 10 mi - 110° 110° 3 kt METAR KGOO 131115Z AUTO 11003KT 10SM CLR 23/13 A2992 RMK A01
03:55
V
23 °C 10 mi - 100° 100° 4 kt METAR KGOO 131055Z AUTO 10004KT 10SM CLR 23/13 A2992 RMK A01
03:35
V
23 °C 10 mi - 360° 360° 0 kt METAR KGOO 131035Z AUTO 00000KT 10SM CLR 23/13 A2993 RMK A01
03:15
V
24 °C 10 mi - 110° 110° 4 kt METAR KGOO 131015Z AUTO 11004KT 10SM CLR 24/13 A2993 RMK A01
02:55
V
24 °C 10 mi - 110° 110° 4 kt METAR KGOO 130955Z AUTO 11004KT 10SM CLR 24/13 A2993 RMK A01
02:35
V
24 °C 10 mi - 100° 100° 4 kt METAR KGOO 130935Z AUTO 10004KT 10SM CLR 24/13 A2993 RMK A01
02:15
V
24 °C 10 mi - 360° 360° 0 kt METAR KGOO 130915Z AUTO 00000KT 10SM FEW035 24/13 A2993 RMK A01
01:55
V
23 °C 10 mi - 360° 360° 0 kt METAR KGOO 130855Z AUTO 00000KT 10SM FEW036 23/14 A2994 RMK A01
01:35
V
22 °C 10 mi - 360° 360° 0 kt METAR KGOO 130835Z AUTO 00000KT 10SM CLR 22/14 A2994 RMK A01
01:15
V
23 °C 10 mi - 360° 360° 0 kt METAR KGOO 130815Z AUTO 00000KT 10SM CLR 23/14 A2994 RMK A01
00:55
V
23 °C 10 mi - 360° 360° 0 kt METAR KGOO 130755Z AUTO 00000KT 10SM CLR 23/14 A2994 RMK A01
00:35
V
24 °C 10 mi - 360° 360° 0 kt METAR KGOO 130735Z AUTO 00000KT 10SM CLR 24/14 A2994 RMK A01
00:15
V
23 °C 10 mi - 360° 360° 0 kt METAR KGOO 130715Z AUTO 00000KT 10SM CLR 23/14 A2994 RMK A01

12 juin 2024

Temps Code Temps Temp. Vue Base cloud Vent METAR/SPECI
23:55
V
24 °C 10 mi - 100° 100° 3 kt METAR KGOO 130655Z AUTO 10003KT 10SM FEW029 24/14 A2994 RMK A01
23:35
V
24 °C 10 mi - 360° 360° 0 kt METAR KGOO 130635Z AUTO 00000KT 10SM FEW031 24/14 A2994 RMK A01
23:15
V
24 °C 10 mi - 360° 360° 0 kt METAR KGOO 130615Z AUTO 00000KT 10SM FEW031 24/14 A2994 RMK A01
22:55
V
24 °C 10 mi - 360° 360° 0 kt METAR KGOO 130555Z AUTO 00000KT 10SM CLR 24/14 A2994 RMK A01
Signaler les modifications